Time,TemperatureF,DewpointF,PressureIn,WindDirection,WindDirectionDegrees,WindSpeedMPH,WindSpeedGustMPH,Humidity,HourlyPrecipIn,Conditions,Clouds,dailyrainin,SoftwareType,DateUTC
2013-10-27 03:00:00,-999.0,-99.9,-100.00,ENE,70,29.0,-999.0,-999,-99.99,,,-99.99,,2013-10-27 03:00:00,
2013-10-27 09:00:00,36.0,36.0,29.93,ESE,120,17.0,-999.0,100,-99.99,,,-99.99,,2013-10-27 09:00:00,
2013-10-27 09:43:00,36.0,36.0,29.93,ESE,120,17.0,-999.0,100,-99.99,,,-99.99,,2013-10-27 09:43:00,
2013-10-27 09:53:00,36.0,36.0,29.93,ESE,120,17.0,-999.0,100,-99.99,,,-99.99,,2013-10-27 09:53:00,
2013-10-27 10:00:00,36.0,36.0,29.90,SE,130,16.0,-999.0,100,-99.99,,,-99.99,,2013-10-27 10:00:00,
2013-10-27 10:42:00,36.0,36.0,29.90,SE,130,16.0,-999.0,100,-99.99,,,-99.99,,2013-10-27 10:42:00,
2013-10-27 10:53:00,36.0,36.0,29.90,SE,130,16.0,-999.0,100,-99.99,,,-99.99,,2013-10-27 10:53:00,
2013-10-27 11:00:00,35.0,-99.9,29.88,ESE,120,20.0,-999.0,-999,-99.99,,,-99.99,,2013-10-27 11:00:00,
2013-10-27 11:42:00,35.0,-99.9,29.88,ESE,120,20.0,-999.0,-999,-99.99,,,-99.99,,2013-10-27 11:42:00,
2013-10-27 11:52:00,35.0,-99.9,29.88,ESE,120,20.0,-999.0,-999,-99.99,,,-99.99,,2013-10-27 11:52:00,
2013-10-27 12:00:00,35.0,35.0,29.83,ESE,110,28.0,-999.0,100,-99.99,,,-99.99,,2013-10-27 12:00:00,
2013-10-27 12:41:00,35.0,35.0,29.83,ESE,110,28.0,-999.0,100,-99.99,,,-99.99,,2013-10-27 12:41:00,
2013-10-27 12:52:00,35.0,35.0,29.83,ESE,110,28.0,-999.0,100,-99.99,,,-99.99,,2013-10-27 12:52:00,
2013-10-27 13:00:00,35.0,35.0,29.79,East,90,17.0,-999.0,100,-99.99,,,-99.99,,2013-10-27 13:00:00,
2013-10-27 13:42:00,35.0,35.0,29.79,East,90,17.0,-999.0,100,-99.99,,,-99.99,,2013-10-27 13:42:00,
2013-10-27 13:52:00,35.0,35.0,29.79,East,90,17.0,-999.0,100,-99.99,,,-99.99,,2013-10-27 13:52:00,
2013-10-27 14:00:00,36.0,35.0,29.74,East,100,25.0,-999.0,97,-99.99,,,-99.99,,2013-10-27 14:00:00,
2013-10-27 14:41:00,36.0,35.0,29.74,East,100,25.0,-999.0,97,-99.99,,,-99.99,,2013-10-27 14:41:00,
2013-10-27 14:52:00,36.0,35.0,29.74,East,100,25.0,-999.0,97,-99.99,,,-99.99,,2013-10-27 14:52:00,
2013-10-27 15:00:00,36.0,35.0,29.69,East,80,18.0,-999.0,96,-99.99,,,-99.99,,2013-10-27 15:00:00,
2013-10-27 15:44:00,36.0,35.0,29.69,East,80,18.0,-999.0,96,-99.99,,,-99.99,,2013-10-27 15:44:00,
2013-10-27 15:54:00,36.0,35.0,29.69,East,80,18.0,-999.0,96,-99.99,,,-99.99,,2013-10-27 15:54:00,
2013-10-27 16:00:00,37.0,35.0,29.60,East,90,26.0,-999.0,93,-99.99,,,-99.99,,2013-10-27 16:00:00,
2013-10-27 16:43:00,37.0,35.0,29.60,East,90,26.0,-999.0,93,-99.99,,,-99.99,,2013-10-27 16:43:00,
2013-10-27 16:53:00,37.0,35.0,29.60,East,90,26.0,-999.0,93,-99.99,,,-99.99,,2013-10-27 16:53:00,
2013-10-27 17:00:00,37.0,35.0,29.56,East,100,26.0,-999.0,93,-99.99,,,-99.99,,2013-10-27 17:00:00,
2013-10-27 17:43:00,37.0,35.0,29.56,East,100,26.0,-999.0,93,-99.99,,,-99.99,,2013-10-27 17:43:00,
2013-10-27 17:53:00,37.0,35.0,29.56,East,100,26.0,-999.0,93,-99.99,,,-99.99,,2013-10-27 17:53:00,
2013-10-27 18:00:00,35.0,34.0,29.51,East,100,31.0,-999.0,96,-99.99,,,-99.99,,2013-10-27 18:00:00,
2013-10-27 18:43:00,35.0,34.0,29.51,East,100,31.0,-999.0,96,-99.99,,,-99.99,,2013-10-27 18:43:00,
2013-10-27 18:52:00,35.0,34.0,29.51,East,100,31.0,-999.0,96,-99.99,,,-99.99,,2013-10-27 18:52:00,
2013-10-27 19:00:00,37.0,36.0,29.49,ESE,110,22.0,-999.0,96,-99.99,,,-99.99,,2013-10-27 19:00:00,
2013-10-27 19:42:00,37.0,36.0,29.49,ESE,110,22.0,-999.0,96,-99.99,,,-99.99,,2013-10-27 19:42:00,
2013-10-27 19:52:00,37.0,36.0,29.49,ESE,110,22.0,-999.0,96,-99.99,,,-99.99,,2013-10-27 19:52:00,
2013-10-27 20:00:00,37.0,36.0,29.49,East,100,17.0,-999.0,97,-99.99,,,-99.99,,2013-10-27 20:00:00,
2013-10-27 20:42:00,37.0,36.0,29.49,East,100,17.0,-999.0,97,-99.99,,,-99.99,,2013-10-27 20:42:00,
2013-10-27 20:52:00,37.0,36.0,29.49,East,100,17.0,-999.0,97,-99.99,,,-99.99,,2013-10-27 20:52:00,
2013-10-27 21:00:00,38.0,38.0,29.47,SE,140,7.0,-999.0,100,-99.99,,,-99.99,,2013-10-27 21:00:00,
2013-10-27 21:43:00,38.0,38.0,29.47,SE,140,7.0,-999.0,100,-99.99,,,-99.99,,2013-10-27 21:43:00,
2013-10-27 21:54:00,38.0,38.0,29.47,SE,140,7.0,-999.0,100,-99.99,,,-99.99,,2013-10-27 21:54:00,
2013-10-27 22:00:00,40.0,40.0,29.45,SE,140,21.0,-999.0,100,-99.99,,,-99.99,,2013-10-27 22:00:00,
2013-10-27 22:43:00,40.0,40.0,29.45,SE,140,21.0,-999.0,100,-99.99,,,-99.99,,2013-10-27 22:43:00,
2013-10-27 22:54:00,40.0,40.0,29.45,SE,140,21.0,-999.0,100,-99.99,,,-99.99,,2013-10-27 22:54:00,
2013-10-27 23:00:00,39.0,39.0,29.45,SE,130,26.0,-999.0,99,-99.99,,,-99.99,,2013-10-27 23:00:00,
2013-10-27 23:42:00,39.0,39.0,29.45,SE,130,26.0,-999.0,99,-99.99,,,-99.99,,2013-10-27 23:42:00,
2013-10-27 23:52:00,39.0,39.0,29.45,SE,130,26.0,-999.0,99,-99.99,,,-99.99,,2013-10-27 23:52:00,